createdAt,value
2023-02-28T00:01:14.142Z,10.43
2023-02-28T00:03:42.033Z,10.45
2023-02-28T00:06:11.460Z,11.70
2023-02-28T00:08:40.805Z,12.13
2023-02-28T00:11:11.384Z,8.73
2023-02-28T00:13:42.452Z,10.50
2023-02-28T00:16:12.998Z,11.13
2023-02-28T00:18:41.296Z,8.80
2023-02-28T00:21:09.952Z,14.23
2023-02-28T00:23:39.125Z,8.63
2023-02-28T00:26:08.174Z,14.32
2023-02-28T00:28:35.849Z,11.02
2023-02-28T00:31:05.271Z,9.90
2023-02-28T00:33:33.041Z,9.13
2023-02-28T00:36:06.655Z,10.10
2023-02-28T00:38:34.627Z,10.55
2023-02-28T00:41:05.461Z,14.13
2023-02-28T00:43:37.402Z,10.15
2023-02-28T00:46:05.842Z,8.40
2023-02-28T00:48:33.948Z,9.52
2023-02-28T00:51:02.326Z,10.63
2023-02-28T00:53:30.709Z,10.25
2023-02-28T00:55:58.391Z,12.50
2023-02-28T00:58:26.764Z,8.02
2023-02-28T01:00:56.528Z,10.18
2023-02-28T01:03:24.633Z,13.73
2023-02-28T01:08:43.174Z,9.63
2023-02-28T01:14:01.115Z,8.75
2023-02-28T01:16:31.029Z,10.68
2023-02-28T01:18:59.163Z,8.77
2023-02-28T01:21:27.580Z,7.45
2023-02-28T01:23:59.139Z,9.63
2023-02-28T01:26:27.176Z,12.00
2023-02-28T01:28:55.257Z,7.43
2023-02-28T01:31:25.332Z,9.93
2023-02-28T01:33:54.501Z,11.15
2023-02-28T01:36:24.476Z,11.95
2023-02-28T01:38:53.761Z,7.90
2023-02-28T01:41:24.006Z,10.27
2023-02-28T01:44:04.661Z,8.85
2023-02-28T01:46:33.843Z,10.52
2023-02-28T01:49:09.361Z,8.80
2023-02-28T01:51:46.555Z,12.48
2023-02-28T01:54:18.558Z,7.15
2023-02-28T01:56:54.347Z,11.68
2023-02-28T01:59:26.233Z,11.82
2023-02-28T02:01:55.381Z,9.55
2023-02-28T02:04:28.425Z,9.18
2023-02-28T02:06:57.072Z,9.88
2023-02-28T02:09:25.021Z,9.00
2023-02-28T02:11:53.227Z,10.45
2023-02-28T02:14:39.196Z,9.05
2023-02-28T02:17:17.699Z,9.48
2023-02-28T02:20:24.600Z,9.63
2023-02-28T02:23:19.211Z,11.32
2023-02-28T02:25:52.185Z,8.98
2023-02-28T02:28:38.045Z,9.13
2023-02-28T02:31:23.078Z,11.93
2023-02-28T02:34:31.276Z,10.48
2023-02-28T02:37:11.816Z,11.57
2023-02-28T02:39:47.368Z,14.80
2023-02-28T02:42:20.265Z,11.98
2023-02-28T02:44:52.666Z,10.27
2023-02-28T02:47:25.589Z,11.48
2023-02-28T02:49:58.378Z,12.73
2023-02-28T02:52:33.954Z,9.57
2023-02-28T02:55:03.446Z,12.45
2023-02-28T02:57:36.256Z,10.73
2023-02-28T03:00:09.324Z,10.70
2023-02-28T03:02:39.557Z,11.27
2023-02-28T03:05:17.887Z,12.40
2023-02-28T03:07:45.957Z,9.52
2023-02-28T03:10:33.008Z,11.32
2023-02-28T03:13:26.305Z,12.80
2023-02-28T03:16:08.669Z,12.02
2023-02-28T03:18:44.201Z,11.45
2023-02-28T03:21:22.893Z,11.27
2023-02-28T03:23:58.524Z,13.63
2023-02-28T03:26:29.984Z,14.73
2023-02-28T03:29:06.607Z,12.20
2023-02-28T03:31:40.632Z,13.00
2023-02-28T03:34:13.241Z,13.80
2023-02-28T03:36:47.205Z,14.55
2023-02-28T03:39:19.973Z,10.68
2023-02-28T03:41:52.600Z,14.18
2023-02-28T03:44:25.202Z,10.75
2023-02-28T03:46:59.741Z,12.98
2023-02-28T03:49:33.270Z,14.27
2023-02-28T03:52:06.336Z,13.80
2023-02-28T03:54:40.659Z,11.85
2023-02-28T03:57:17.686Z,14.30
2023-02-28T03:59:50.296Z,15.00
2023-02-28T04:02:19.730Z,12.73
2023-02-28T04:04:50.978Z,12.73
2023-02-28T04:07:20.481Z,14.95
2023-02-28T04:09:48.554Z,14.73
2023-02-28T04:12:16.223Z,15.23
2023-02-28T04:14:44.351Z,11.95
2023-02-28T04:17:12.445Z,13.15
2023-02-28T04:19:40.131Z,13.25
2023-02-28T04:22:08.300Z,11.77
2023-02-28T04:24:38.284Z,14.55
2023-02-28T04:27:05.933Z,13.82
2023-02-28T04:29:34.595Z,15.05
2023-02-28T04:32:04.399Z,15.65
2023-02-28T04:34:34.529Z,12.23
2023-02-28T04:37:12.893Z,13.48
2023-02-28T04:39:44.629Z,14.10
2023-02-28T04:42:13.494Z,14.65
2023-02-28T04:44:41.223Z,13.20
2023-02-28T04:47:09.295Z,13.02
2023-02-28T04:49:37.563Z,15.70
2023-02-28T04:52:05.411Z,13.05
2023-02-28T04:54:33.599Z,14.63
2023-02-28T04:57:03.118Z,16.15
2023-02-28T04:59:30.755Z,16.23
2023-02-28T05:01:59.025Z,12.45
2023-02-28T05:04:26.783Z,17.23
2023-02-28T05:06:54.453Z,14.15
2023-02-28T05:09:22.577Z,17.38
2023-02-28T05:11:50.690Z,14.02
2023-02-28T05:14:19.763Z,15.50
2023-02-28T05:16:47.477Z,15.68
2023-02-28T05:19:16.113Z,14.50
2023-02-28T05:21:52.555Z,12.73
2023-02-28T05:24:24.049Z,15.80
2023-02-28T05:26:54.198Z,13.10
2023-02-28T05:29:23.770Z,16.80
2023-02-28T05:31:51.599Z,12.52
2023-02-28T05:34:19.808Z,17.00
2023-02-28T05:36:47.804Z,19.20
2023-02-28T05:39:15.482Z,12.52
2023-02-28T05:41:44.235Z,18.20
2023-02-28T05:44:13.682Z,15.13
2023-02-28T05:46:42.741Z,15.48
2023-02-28T05:49:10.481Z,13.23
2023-02-28T05:51:40.686Z,16.02
2023-02-28T05:54:09.110Z,20.27
2023-02-28T05:56:39.212Z,16.27
2023-02-28T05:59:06.884Z,14.13
2023-02-28T06:01:36.971Z,15.85
2023-02-28T06:04:16.710Z,16.00
2023-02-28T06:06:53.692Z,17.47
2023-02-28T06:09:21.853Z,14.25
2023-02-28T06:11:49.592Z,12.52
2023-02-28T06:14:18.708Z,14.88
2023-02-28T06:16:47.083Z,13.23
2023-02-28T06:19:16.213Z,16.40
2023-02-28T06:21:43.922Z,16.70
2023-02-28T06:24:12.944Z,16.25
2023-02-28T06:26:40.624Z,16.30
2023-02-28T06:29:08.373Z,16.90
2023-02-28T06:31:36.729Z,15.55
2023-02-28T06:34:04.555Z,16.73
2023-02-28T06:36:33.581Z,17.15
2023-02-28T06:39:01.966Z,17.15
2023-02-28T06:41:32.745Z,13.95
2023-02-28T06:44:04.480Z,13.55
2023-02-28T06:46:32.198Z,15.95
2023-02-28T06:49:00.107Z,17.60
2023-02-28T06:51:28.872Z,17.10
2023-02-28T06:53:58.089Z,12.75
2023-02-28T06:56:25.761Z,13.63
2023-02-28T06:58:54.326Z,13.00
2023-02-28T07:01:23.914Z,13.23
2023-02-28T07:06:23.725Z,16.35
2023-02-28T07:08:52.538Z,17.45
2023-02-28T07:11:23.401Z,14.93
2023-02-28T07:13:52.440Z,14.30
2023-02-28T07:16:20.658Z,15.80
2023-02-28T07:18:48.416Z,21.30
2023-02-28T07:21:17.053Z,15.95
2023-02-28T07:23:44.709Z,16.85
2023-02-28T07:26:15.673Z,18.70
2023-02-28T07:28:46.332Z,25.63
2023-02-28T07:31:15.893Z,16.95
2023-02-28T07:33:44.102Z,15.68
2023-02-28T07:36:16.794Z,12.98
2023-02-28T07:38:48.231Z,18.38
2023-02-28T07:41:16.402Z,14.48
2023-02-28T07:43:46.818Z,15.38
2023-02-28T07:46:17.036Z,19.35
2023-02-28T07:48:45.063Z,16.77
2023-02-28T07:51:13.674Z,18.23
2023-02-28T07:53:41.417Z,14.57
2023-02-28T07:56:11.102Z,13.13
2023-02-28T08:01:12.645Z,9.90
2023-02-28T08:03:41.556Z,11.05
2023-02-28T08:06:17.285Z,9.88
2023-02-28T08:08:45.874Z,15.38
2023-02-28T08:11:13.551Z,10.90
2023-02-28T08:13:43.214Z,13.10
2023-02-28T08:18:40.569Z,11.55
2023-02-28T08:21:09.235Z,9.73
2023-02-28T08:23:37.498Z,9.82
2023-02-28T08:26:05.896Z,8.35
2023-02-28T08:28:33.918Z,9.18
2023-02-28T08:31:02.301Z,11.95
2023-02-28T08:33:32.399Z,9.13
2023-02-28T08:36:00.042Z,10.70
2023-02-28T08:38:27.920Z,10.77
2023-02-28T08:41:00.169Z,9.52
2023-02-28T08:43:28.153Z,6.07
2023-02-28T08:45:57.727Z,8.05
2023-02-28T08:51:07.743Z,6.78
2023-02-28T08:53:35.787Z,10.13
2023-02-28T08:56:05.956Z,9.32
2023-02-28T08:58:34.538Z,7.15
2023-02-28T09:01:03.056Z,7.53
2023-02-28T09:03:30.931Z,7.47
2023-02-28T09:06:02.229Z,9.70
2023-02-28T09:08:32.277Z,12.02
2023-02-28T09:11:02.229Z,9.73
2023-02-28T09:13:31.277Z,7.72
2023-02-28T09:15:59.971Z,7.20
2023-02-28T09:18:27.905Z,6.20
2023-02-28T09:20:55.608Z,5.25
2023-02-28T09:23:25.199Z,7.18
2023-02-28T09:25:55.015Z,6.07
2023-02-28T09:28:23.887Z,6.72
2023-02-28T09:30:54.263Z,7.97
2023-02-28T09:33:24.980Z,8.68
2023-02-28T09:35:54.436Z,8.05
2023-02-28T09:38:22.098Z,6.20
2023-02-28T09:40:54.400Z,6.05
2023-02-28T09:43:27.333Z,7.00
2023-02-28T09:46:01.568Z,6.20
2023-02-28T09:48:35.845Z,7.22
2023-02-28T09:51:07.557Z,4.95
2023-02-28T09:53:40.461Z,5.03
2023-02-28T09:56:13.064Z,6.78
2023-02-28T09:58:46.822Z,5.05
2023-02-28T10:01:24.232Z,5.00
2023-02-28T10:03:58.919Z,4.15
2023-02-28T10:06:32.797Z,3.65
2023-02-28T10:09:04.240Z,4.00
2023-02-28T10:11:38.166Z,6.40
2023-02-28T10:14:15.281Z,3.90
2023-02-28T10:16:49.339Z,3.58
2023-02-28T10:19:21.438Z,4.47
2023-02-28T10:21:57.523Z,4.25
2023-02-28T10:24:32.466Z,3.38
2023-02-28T10:27:13.874Z,4.50
2023-02-28T10:29:44.844Z,3.47
2023-02-28T10:32:16.976Z,5.38
2023-02-28T10:34:44.814Z,3.88
2023-02-28T10:37:17.044Z,4.18
2023-02-28T10:39:47.387Z,3.55
2023-02-28T10:42:27.446Z,3.22
2023-02-28T10:45:14.110Z,3.88
2023-02-28T10:47:54.024Z,3.63
2023-02-28T10:50:31.637Z,3.63
2023-02-28T10:53:14.202Z,3.95
2023-02-28T10:55:41.900Z,3.60
2023-02-28T10:58:23.896Z,3.50
2023-02-28T11:00:53.129Z,2.80
2023-02-28T11:03:33.610Z,4.40
2023-02-28T11:06:08.834Z,4.32
2023-02-28T11:08:45.972Z,5.85
2023-02-28T11:11:14.002Z,4.03
2023-02-28T11:13:43.104Z,3.45
2023-02-28T11:16:14.792Z,3.72
2023-02-28T11:18:46.064Z,3.00
2023-02-28T11:21:21.947Z,3.80
2023-02-28T11:23:53.261Z,5.63
2023-02-28T11:26:44.728Z,8.45
2023-02-28T11:29:21.130Z,5.13
2023-02-28T11:32:18.603Z,4.22
2023-02-28T11:34:48.562Z,3.95
2023-02-28T11:37:20.284Z,5.68
2023-02-28T11:39:48.678Z,4.80
2023-02-28T11:42:40.945Z,4.68
2023-02-28T11:45:25.444Z,4.70
2023-02-28T11:48:01.775Z,3.22
2023-02-28T11:50:44.260Z,5.53
2023-02-28T11:53:26.399Z,3.72
2023-02-28T11:56:05.377Z,5.03
2023-02-28T11:58:47.318Z,4.75
2023-02-28T12:01:32.610Z,3.85
2023-02-28T12:04:10.042Z,5.47
2023-02-28T12:06:47.508Z,5.55
2023-02-28T12:09:35.362Z,3.03
2023-02-28T12:12:14.195Z,4.28
2023-02-28T12:14:55.864Z,3.00
2023-02-28T12:17:49.331Z,5.28
2023-02-28T12:20:28.446Z,2.78
2023-02-28T12:23:12.583Z,3.90
2023-02-28T12:25:58.645Z,4.90
2023-02-28T12:28:33.580Z,6.45
2023-02-28T12:31:06.923Z,3.92
2023-02-28T12:33:41.347Z,10.57
2023-02-28T12:36:14.119Z,5.40
2023-02-28T12:38:47.362Z,3.25
2023-02-28T12:41:18.428Z,4.03
2023-02-28T12:43:49.747Z,7.03
2023-02-28T12:46:23.322Z,5.30
2023-02-28T12:48:57.986Z,3.30
2023-02-28T12:51:28.903Z,3.30
2023-02-28T12:54:07.174Z,3.25
2023-02-28T12:56:47.855Z,3.00
2023-02-28T12:59:25.739Z,3.22
2023-02-28T13:02:15.133Z,4.05
2023-02-28T13:05:29.167Z,4.57
2023-02-28T13:08:26.823Z,3.13
2023-02-28T13:10:56.335Z,3.15
2023-02-28T13:13:31.112Z,4.15
2023-02-28T13:16:01.894Z,3.58
2023-02-28T13:18:34.672Z,5.15
2023-02-28T13:21:04.230Z,4.70
2023-02-28T13:24:10.736Z,3.83
2023-02-28T13:27:11.913Z,3.80
2023-02-28T13:29:42.056Z,3.42
2023-02-28T13:32:43.060Z,3.97
2023-02-28T13:35:38.361Z,2.88
2023-02-28T13:38:38.645Z,3.60
2023-02-28T13:41:49.837Z,4.25
2023-02-28T13:44:20.726Z,4.95
2023-02-28T13:47:31.058Z,4.07
2023-02-28T13:50:17.904Z,3.33
2023-02-28T13:52:55.265Z,3.22
2023-02-28T13:55:33.763Z,3.92
2023-02-28T13:58:14.276Z,3.83
2023-02-28T14:00:59.789Z,3.83
2023-02-28T14:04:04.856Z,4.25
2023-02-28T14:06:34.453Z,4.00
2023-02-28T14:09:08.889Z,3.65
2023-02-28T14:11:40.609Z,3.65
2023-02-28T14:14:10.557Z,3.83
2023-02-28T14:16:43.302Z,2.92
2023-02-28T14:19:17.634Z,3.63
2023-02-28T14:22:07.561Z,6.45
2023-02-28T14:25:02.156Z,5.07
2023-02-28T14:27:41.478Z,7.53
2023-02-28T14:30:42.452Z,4.53
2023-02-28T14:33:24.887Z,4.85
2023-02-28T14:36:05.240Z,4.45
2023-02-28T14:38:38.116Z,7.18
2023-02-28T14:41:15.109Z,5.65
2023-02-28T14:43:53.550Z,5.15
2023-02-28T14:46:23.369Z,4.78
2023-02-28T14:48:52.663Z,4.55
2023-02-28T14:51:22.477Z,5.57
2023-02-28T14:53:55.914Z,5.00
2023-02-28T14:56:28.026Z,4.05
2023-02-28T14:58:59.664Z,3.67
2023-02-28T15:01:28.504Z,5.65
2023-02-28T15:04:02.986Z,3.53
2023-02-28T15:06:32.135Z,4.18
2023-02-28T15:09:12.229Z,4.30
2023-02-28T15:11:41.930Z,4.80
2023-02-28T15:16:48.293Z,8.38
2023-02-28T15:19:23.002Z,16.83
2023-02-28T15:21:54.467Z,5.18
2023-02-28T15:24:27.060Z,5.97
2023-02-28T15:26:58.880Z,3.78
2023-02-28T15:29:31.362Z,4.95
2023-02-28T15:32:03.644Z,6.45
2023-02-28T15:34:43.120Z,7.15
2023-02-28T15:37:29.454Z,4.05
2023-02-28T15:39:59.683Z,4.90
2023-02-28T15:42:32.447Z,4.32
2023-02-28T15:45:02.104Z,4.28
2023-02-28T15:47:32.159Z,4.18
2023-02-28T15:50:03.166Z,3.83
2023-02-28T15:52:39.748Z,6.75
2023-02-28T15:58:04.745Z,3.92
2023-02-28T16:03:29.156Z,7.07
2023-02-28T16:06:26.520Z,9.23
2023-02-28T16:08:54.605Z,4.43
2023-02-28T16:11:23.817Z,4.47
2023-02-28T16:13:53.998Z,5.05
2023-02-28T16:16:26.312Z,4.07
2023-02-28T16:18:55.262Z,4.82
2023-02-28T16:21:23.222Z,5.55
2023-02-28T16:23:51.145Z,3.95
2023-02-28T16:26:25.079Z,4.50
2023-02-28T16:28:53.983Z,5.65
2023-02-28T16:31:23.469Z,6.35
2023-02-28T16:33:51.702Z,4.40
2023-02-28T16:36:22.860Z,7.00
2023-02-28T16:38:51.507Z,4.63
2023-02-28T16:41:23.500Z,8.20
2023-02-28T16:43:54.550Z,5.53
2023-02-28T16:46:24.829Z,6.22
2023-02-28T16:48:52.807Z,8.43
2023-02-28T16:51:21.091Z,9.75
2023-02-28T16:53:50.438Z,5.63
2023-02-28T16:56:21.703Z,9.13
2023-02-28T16:58:51.741Z,4.63
2023-02-28T17:01:22.973Z,8.82
2023-02-28T17:03:53.246Z,4.80
2023-02-28T17:06:24.205Z,7.88
2023-02-28T17:08:53.883Z,4.78
2023-02-28T17:13:50.574Z,4.13
2023-02-28T17:16:25.595Z,8.15
2023-02-28T17:19:02.403Z,4.50
2023-02-28T17:21:32.311Z,5.53
2023-02-28T17:24:01.194Z,4.97
2023-02-28T17:26:30.159Z,4.63
2023-02-28T17:29:00.137Z,5.05
2023-02-28T17:31:29.473Z,4.40
2023-02-28T17:33:58.927Z,4.55
2023-02-28T17:36:29.337Z,5.30
2023-02-28T17:38:59.398Z,4.90
2023-02-28T17:41:27.638Z,7.60
2023-02-28T17:43:57.843Z,8.35
2023-02-28T17:46:26.881Z,7.43
2023-02-28T17:48:55.529Z,6.65
2023-02-28T17:51:27.076Z,12.98
2023-02-28T17:53:55.132Z,14.32
2023-02-28T17:56:25.244Z,9.68
2023-02-28T17:58:54.851Z,9.88
2023-02-28T18:03:52.065Z,25.75
2023-02-28T18:06:24.907Z,17.88
2023-02-28T18:08:54.354Z,29.73
2023-02-28T18:11:24.315Z,23.67
2023-02-28T18:13:55.827Z,13.88
2023-02-28T18:16:23.941Z,15.98
2023-02-28T18:18:51.837Z,11.02
2023-02-28T18:21:20.006Z,6.10
2023-02-28T18:23:52.068Z,8.80
2023-02-28T18:26:22.325Z,8.50
2023-02-28T18:28:50.561Z,15.18
2023-02-28T18:31:21.149Z,12.23
2023-02-28T18:33:51.089Z,10.00
2023-02-28T18:36:20.782Z,8.40
2023-02-28T18:41:16.940Z,9.43
2023-02-28T18:43:46.309Z,14.50
2023-02-28T18:46:15.931Z,18.65
2023-02-28T18:48:44.688Z,11.75
2023-02-28T18:51:15.077Z,8.50
2023-02-28T18:53:44.166Z,8.48
2023-02-28T18:56:14.776Z,16.45
2023-02-28T18:58:42.787Z,7.82
2023-02-28T19:01:19.172Z,9.63
2023-02-28T19:03:47.317Z,6.95
2023-02-28T19:06:15.838Z,6.30
2023-02-28T19:08:44.191Z,7.82
2023-02-28T19:11:14.528Z,12.65
2023-02-28T19:13:43.002Z,9.13
2023-02-28T19:16:13.690Z,10.63
2023-02-28T19:18:43.364Z,6.57
2023-02-28T19:21:13.820Z,7.32
2023-02-28T19:23:42.717Z,5.75
2023-02-28T19:26:12.890Z,6.07
2023-02-28T19:28:41.519Z,9.57
2023-02-28T19:31:14.004Z,9.32
2023-02-28T19:33:44.089Z,14.27
2023-02-28T19:36:13.252Z,9.50
2023-02-28T19:38:41.802Z,9.57
2023-02-28T19:41:12.386Z,7.00
2023-02-28T19:43:40.949Z,5.30
2023-02-28T19:46:10.021Z,7.15
2023-02-28T19:48:38.521Z,7.03
2023-02-28T19:51:09.855Z,6.30
2023-02-28T19:53:39.808Z,5.80
2023-02-28T19:56:09.700Z,5.53
2023-02-28T19:58:38.340Z,8.07
2023-02-28T20:01:11.252Z,6.95
2023-02-28T20:03:39.359Z,5.10
2023-02-28T20:06:11.243Z,5.80
2023-02-28T20:08:39.521Z,6.50
2023-02-28T20:11:09.173Z,21.23
2023-02-28T20:13:37.855Z,13.10
2023-02-28T20:16:09.636Z,13.55
2023-02-28T20:18:38.685Z,12.13
2023-02-28T20:21:10.721Z,14.32
2023-02-28T20:23:40.255Z,13.85
2023-02-28T20:26:08.870Z,19.23
2023-02-28T20:28:36.777Z,18.75
2023-02-28T20:31:05.255Z,14.20
2023-02-28T20:33:33.317Z,11.63
2023-02-28T20:36:01.839Z,13.20
2023-02-28T20:38:32.241Z,11.90
2023-02-28T20:41:01.492Z,14.13
2023-02-28T20:43:30.220Z,8.15
2023-02-28T20:46:02.407Z,7.70
2023-02-28T20:48:31.543Z,15.55
2023-02-28T20:51:01.220Z,6.97
2023-02-28T20:56:01.336Z,10.52
2023-02-28T20:58:32.698Z,9.75
2023-02-28T21:01:02.021Z,12.05
2023-02-28T21:03:30.106Z,8.18
2023-02-28T21:06:03.301Z,9.75
2023-02-28T21:08:31.677Z,8.75
2023-02-28T21:11:01.058Z,15.25
2023-02-28T21:13:29.970Z,13.50
2023-02-28T21:15:58.115Z,10.80
2023-02-28T21:18:26.396Z,13.02
2023-02-28T21:20:54.843Z,10.93
2023-02-28T21:23:22.813Z,10.00
2023-02-28T21:25:50.985Z,14.15
2023-02-28T21:28:20.791Z,10.93
2023-02-28T21:30:48.865Z,8.25
2023-02-28T21:33:17.421Z,10.55
2023-02-28T21:35:45.868Z,9.80
2023-02-28T21:38:14.058Z,9.73
2023-02-28T21:40:42.248Z,10.95
2023-02-28T21:43:10.754Z,9.80
2023-02-28T21:45:41.499Z,11.45
2023-02-28T21:48:10.657Z,13.13
2023-02-28T21:50:38.980Z,8.48
2023-02-28T21:53:06.981Z,7.55
2023-02-28T21:55:36.140Z,9.00
2023-02-28T21:58:04.592Z,11.13
2023-02-28T22:00:32.847Z,10.40
2023-02-28T22:03:02.168Z,10.07
2023-02-28T22:05:31.477Z,14.90
2023-02-28T22:07:59.460Z,11.85
2023-02-28T22:10:27.575Z,11.45
2023-02-28T22:12:55.686Z,9.70
2023-02-28T22:15:24.318Z,11.60
2023-02-28T22:17:52.406Z,13.05
2023-02-28T22:20:21.906Z,12.00
2023-02-28T22:22:50.008Z,13.65
2023-02-28T22:25:18.816Z,12.50
2023-02-28T22:27:48.686Z,13.83
2023-02-28T22:30:17.679Z,12.10
2023-02-28T22:32:45.726Z,10.95
2023-02-28T22:35:14.761Z,11.32
2023-02-28T22:37:44.533Z,12.80
2023-02-28T22:40:14.567Z,11.07
2023-02-28T22:42:42.663Z,9.10
2023-02-28T22:45:11.514Z,10.85
2023-02-28T22:47:40.133Z,11.18
2023-02-28T22:50:08.952Z,11.93
2023-02-28T22:52:40.788Z,11.70
2023-02-28T22:55:11.678Z,12.13
2023-02-28T22:57:39.630Z,15.93
2023-02-28T23:00:15.938Z,9.27
2023-02-28T23:02:44.057Z,11.52
2023-02-28T23:05:13.438Z,12.65
2023-02-28T23:07:43.931Z,10.27
2023-02-28T23:10:16.451Z,12.68
2023-02-28T23:12:54.688Z,10.82
2023-02-28T23:15:23.530Z,12.98
2023-02-28T23:17:52.007Z,14.27
2023-02-28T23:20:22.680Z,13.95
2023-02-28T23:22:51.801Z,11.82
2023-02-28T23:25:23.089Z,14.15
2023-02-28T23:27:51.354Z,12.73
2023-02-28T23:30:19.683Z,15.60
2023-02-28T23:32:48.681Z,14.23
2023-02-28T23:35:17.101Z,14.68
2023-02-28T23:37:45.241Z,13.65
2023-02-28T23:40:15.508Z,12.88
2023-02-28T23:42:45.464Z,15.15
2023-02-28T23:45:13.503Z,13.35
2023-02-28T23:47:42.575Z,13.75
2023-02-28T23:50:11.929Z,16.38
2023-02-28T23:52:40.325Z,12.02
2023-02-28T23:55:09.638Z,13.57
2023-02-28T23:57:37.865Z,16.05
